Time;durP1;ratioP1;P1;durP2;ratioP2;P2;SDS_P1;SDS_P2;PMS_P1;PMS_P2;Temp;Humidity;BMP_temperature;BMP_pressure;BME280_temperature;BME280_humidity;BME280_pressure;Samples;Min_cycle;Max_cycle;Signal;HPM_P1;HPM_P2
2022/10/15 00:02:23;;;;;;;11.20;10.10;;;;;;;;;;5050017;28;20519;-94
2022/10/15 00:05:17;;;;;;;12.83;11.47;;;;;;;;;;5050973;28;20550;-93
2022/10/15 00:08:08;;;;;;;11.50;10.40;;;;;;;;;;5036125;28;20828;-93
2022/10/15 00:11:02;;;;;;;12.13;10.93;;;;;;;;;;5040297;28;20501;-93
2022/10/15 00:20:06;;;;;;;12.10;10.77;;;;;;;;;;5033232;28;20451;-94
2022/10/15 00:23:02;;;;;;;11.97;10.63;;;;;;;;;;5037526;28;20530;-94
2022/10/15 00:25:58;;;;;;;11.40;10.20;;;;;;;;;;5033521;28;20467;-94
2022/10/15 00:28:50;;;;;;;10.63;9.60;;;;;;;;;;5040074;28;20452;-92
2022/10/15 00:31:43;;;;;;;11.77;10.77;;;;;;;;;;5040143;28;20447;-93
2022/10/15 00:34:33;;;;;;;12.10;10.90;;;;;;;;;;5046270;28;20468;-93
2022/10/15 00:37:26;;;;;;;12.00;10.80;;;;;;;;;;5043211;28;20462;-93
2022/10/15 00:40:32;;;;;;;14.23;12.77;;;;;;;;;;5031083;28;20553;-94
2022/10/15 00:43:36;;;;;;;15.93;13.63;;;;;;;;;;5038942;28;20451;-94
2022/10/15 00:46:32;;;;;;;14.17;12.70;;;;;;;;;;5040096;28;20993;-94
2022/10/15 00:49:25;;;;;;;12.87;11.67;;;;;;;;;;5038590;28;20447;-93
2022/10/15 00:52:16;;;;;;;15.63;12.70;;;;;;;;;;5038576;28;20439;-93
2022/10/15 00:55:08;;;;;;;14.97;13.40;;;;;;;;;;5029745;28;20444;-93
2022/10/15 00:58:02;;;;;;;15.90;14.27;;;;;;;;;;5026594;28;20471;-94
2022/10/15 01:00:52;;;;;;;16.90;13.53;;;;;;;;;;5036837;28;20463;-92
2022/10/15 01:03:40;;;;;;;16.03;13.90;;;;;;;;;;5037018;28;20999;-93
2022/10/15 01:06:44;;;;;;;16.73;14.33;;;;;;;;;;5051523;28;20502;-93
2022/10/15 01:09:34;;;;;;;15.87;14.17;;;;;;;;;;5043724;28;20538;-94
2022/10/15 01:12:28;;;;;;;16.43;13.93;;;;;;;;;;5039853;28;20458;-94
2022/10/15 01:15:20;;;;;;;16.00;14.30;;;;;;;;;;5038401;28;20448;-93
2022/10/15 01:18:20;;;;;;;16.63;14.53;;;;;;;;;;5040921;28;20460;-93
2022/10/15 01:21:17;;;;;;;17.87;14.90;;;;;;;;;;5033690;28;20454;-93
2022/10/15 01:24:26;;;;;;;17.03;14.37;;;;;;;;;;5045941;28;20451;-93
2022/10/15 01:30:26;;;;;;;16.33;14.60;;;;;;;;;;5056642;28;20460;-92
2022/10/15 01:33:24;;;;;;;17.70;15.80;;;;;;;;;;5048750;28;20436;-93
2022/10/15 01:36:17;;;;;;;16.93;15.03;;;;;;;;;;5043776;28;20522;-93
2022/10/15 01:39:11;;;;;;;18.07;16.17;;;;;;;;;;5043603;28;20955;-93
2022/10/15 01:42:06;;;;;;;20.90;16.33;;;;;;;;;;5037109;28;20454;-94
2022/10/15 01:45:12;;;;;;;18.83;15.50;;;;;;;;;;5040901;28;20446;-93
2022/10/15 01:48:10;;;;;;;20.43;17.10;;;;;;;;;;5035288;28;20534;-92
2022/10/15 01:51:01;;;;;;;19.33;16.90;;;;;;;;;;5024636;28;20571;-93
2022/10/15 01:53:59;;;;;;;19.93;16.80;;;;;;;;;;5030415;28;20466;-93
2022/10/15 01:56:50;;;;;;;18.90;15.40;;;;;;;;;;5057075;28;20485;-94
2022/10/15 01:59:41;;;;;;;20.07;16.40;;;;;;;;;;5062005;28;20443;-93
2022/10/15 02:02:30;;;;;;;18.80;16.43;;;;;;;;;;5040889;28;20455;-94
2022/10/15 02:05:32;;;;;;;19.33;17.10;;;;;;;;;;5044068;28;20455;-93
2022/10/15 02:08:25;;;;;;;18.00;15.17;;;;;;;;;;5032380;28;20475;-93
2022/10/15 02:11:18;;;;;;;19.33;16.67;;;;;;;;;;5040455;28;20448;-93
2022/10/15 02:14:13;;;;;;;19.93;16.13;;;;;;;;;;5041609;28;20455;-92
2022/10/15 02:17:14;;;;;;;21.00;17.23;;;;;;;;;;5058571;28;20480;-92
2022/10/15 02:20:14;;;;;;;20.80;17.17;;;;;;;;;;5059298;28;20443;-92
2022/10/15 02:23:09;;;;;;;19.60;16.23;;;;;;;;;;5059753;28;20440;-93
2022/10/15 02:26:01;;;;;;;20.10;16.47;;;;;;;;;;5051271;28;20451;-93
2022/10/15 02:28:53;;;;;;;20.37;17.17;;;;;;;;;;5058609;28;20439;-94
2022/10/15 02:31:46;;;;;;;20.90;17.20;;;;;;;;;;5059674;28;20470;-93
2022/10/15 02:34:37;;;;;;;21.43;17.87;;;;;;;;;;5059782;28;20491;-94
2022/10/15 02:40:42;;;;;;;22.27;18.33;;;;;;;;;;5056401;28;20444;-94
2022/10/15 02:43:33;;;;;;;22.07;17.90;;;;;;;;;;5048979;28;20442;-94
2022/10/15 02:46:21;;;;;;;20.60;17.60;;;;;;;;;;5047981;28;20447;-93
2022/10/15 02:49:14;;;;;;;21.37;18.30;;;;;;;;;;5046672;28;20448;-93
2022/10/15 02:52:04;;;;;;;21.77;18.00;;;;;;;;;;5053047;28;20443;-94
2022/10/15 02:54:53;;;;;;;22.93;17.83;;;;;;;;;;5050542;28;20515;-94
2022/10/15 02:58:05;;;;;;;21.43;17.40;;;;;;;;;;5046494;28;20482;-93
2022/10/15 03:00:54;;;;;;;21.87;18.33;;;;;;;;;;5039540;28;20443;-93
2022/10/15 03:03:43;;;;;;;22.63;18.53;;;;;;;;;;5023273;28;20433;-94
2022/10/15 03:06:33;;;;;;;25.17;19.50;;;;;;;;;;5030635;28;20448;-93
2022/10/15 03:09:22;;;;;;;22.63;18.30;;;;;;;;;;5040977;28;20463;-94
2022/10/15 03:12:14;;;;;;;23.77;19.97;;;;;;;;;;5039222;28;20455;-93
2022/10/15 03:15:06;;;;;;;23.37;19.40;;;;;;;;;;5029877;28;20443;-93
2022/10/15 03:17:55;;;;;;;21.90;17.97;;;;;;;;;;5040624;28;20472;-93
2022/10/15 03:20:46;;;;;;;20.93;17.70;;;;;;;;;;5039874;28;20466;-94
2022/10/15 03:23:34;;;;;;;22.03;18.60;;;;;;;;;;5031157;28;20465;-93
2022/10/15 03:26:23;;;;;;;23.00;18.50;;;;;;;;;;5042430;28;20458;-93
2022/10/15 03:29:14;;;;;;;19.83;16.07;;;;;;;;;;5045581;28;20888;-93
2022/10/15 03:32:04;;;;;;;20.60;17.30;;;;;;;;;;5045804;28;20455;-93
2022/10/15 03:34:54;;;;;;;22.50;18.47;;;;;;;;;;5041477;28;20452;-93
2022/10/15 03:37:43;;;;;;;21.63;16.63;;;;;;;;;;5044560;28;20467;-92
2022/10/15 03:40:33;;;;;;;21.27;17.33;;;;;;;;;;5041667;28;20999;-93
2022/10/15 03:43:24;;;;;;;19.83;16.70;;;;;;;;;;5039126;28;20456;-93
2022/10/15 03:46:13;;;;;;;19.60;15.40;;;;;;;;;;5052749;28;20960;-93
2022/10/15 03:49:12;;;;;;;21.10;16.97;;;;;;;;;;5044313;28;20478;-93
2022/10/15 03:52:01;;;;;;;22.53;16.60;;;;;;;;;;5030662;28;20444;-94
2022/10/15 03:54:50;;;;;;;19.67;15.13;;;;;;;;;;5035795;28;20440;-93
2022/10/15 03:57:41;;;;;;;18.80;15.80;;;;;;;;;;5043305;28;20975;-93
2022/10/15 04:00:31;;;;;;;19.40;14.77;;;;;;;;;;5053775;28;20436;-94
2022/10/15 04:03:20;;;;;;;20.03;15.80;;;;;;;;;;5049820;28;20620;-93
2022/10/15 04:06:14;;;;;;;19.63;16.23;;;;;;;;;;5053812;28;20447;-94
2022/10/15 04:09:04;;;;;;;17.00;14.77;;;;;;;;;;5051981;28;20550;-94
2022/10/15 04:11:53;;;;;;;17.33;14.30;;;;;;;;;;5051501;28;20443;-94
2022/10/15 04:14:56;;;;;;;19.77;15.10;;;;;;;;;;5044382;28;20490;-93
2022/10/15 04:17:49;;;;;;;18.77;15.00;;;;;;;;;;5052438;28;20476;-93
2022/10/15 04:20:41;;;;;;;21.10;16.17;;;;;;;;;;5003739;28;20523;-93
2022/10/15 04:23:34;;;;;;;19.20;15.17;;;;;;;;;;5053822;28;20451;-94
2022/10/15 04:26:24;;;;;;;17.87;15.17;;;;;;;;;;5058185;28;20448;-93
2022/10/15 04:32:08;;;;;;;21.03;16.50;;;;;;;;;;5154304;27;20331;-94
2022/10/15 04:34:58;;;;;;;22.73;16.53;;;;;;;;;;5105707;28;20432;-93
2022/10/15 04:37:58;;;;;;;19.83;15.43;;;;;;;;;;5118410;28;20465;-92
2022/10/15 04:40:47;;;;;;;23.30;17.03;;;;;;;;;;5122240;28;20956;-93
2022/10/15 04:43:36;;;;;;;20.17;15.67;;;;;;;;;;5115225;28;20448;-93
2022/10/15 04:46:26;;;;;;;24.50;17.10;;;;;;;;;;5108553;28;20455;-93
2022/10/15 04:49:21;;;;;;;26.73;17.33;;;;;;;;;;5096672;28;20456;-93
2022/10/15 04:52:11;;;;;;;22.53;16.83;;;;;;;;;;5086461;28;20448;-93
2022/10/15 04:55:01;;;;;;;24.83;16.43;;;;;;;;;;5122795;28;20460;-93
2022/10/15 05:01:26;;;;;;;25.33;18.43;;;;;;;;;;5061201;28;20512;-93
2022/10/15 05:04:38;;;;;;;23.73;16.73;;;;;;;;;;5054713;28;20450;-93
2022/10/15 05:11:42;;;;;;;33.50;19.17;;;;;;;;;;5045133;28;20451;-93
2022/10/15 05:18:03;;;;;;;29.23;18.50;;;;;;;;;;5046812;28;20475;-93
2022/10/15 05:21:14;;;;;;;28.57;18.40;;;;;;;;;;5040201;28;20500;-93
2022/10/15 05:30:59;;;;;;;28.33;19.17;;;;;;;;;;5036223;28;20451;-93
2022/10/15 05:37:13;;;;;;;29.63;19.67;;;;;;;;;;5035371;28;20452;-93
2022/10/15 05:43:31;;;;;;;30.00;19.50;;;;;;;;;;5028163;28;20837;-93
2022/10/15 05:56:33;;;;;;;25.90;18.70;;;;;;;;;;5035173;28;20460;-93
2022/10/15 05:59:28;;;;;;;31.80;19.83;;;;;;;;;;5032106;28;20483;-93
2022/10/15 06:06:00;;;;;;;31.95;21.38;;;;;;;;;;5026176;28;20551;-94
2022/10/15 06:15:15;;;;;;;31.20;20.73;;;;;;;;;;5023154;28;20523;-93
2022/10/15 06:18:18;;;;;;;31.60;19.93;;;;;;;;;;5032684;28;20472;-93
2022/10/15 06:21:36;;;;;;;34.50;21.40;;;;;;;;;;5028048;28;20536;-93
2022/10/15 06:24:55;;;;;;;33.83;22.03;;;;;;;;;;5025735;28;20451;-94
2022/10/15 06:28:14;;;;;;;34.37;21.67;;;;;;;;;;5026298;28;20476;-93
2022/10/15 06:37:47;;;;;;;32.67;22.10;;;;;;;;;;5022202;28;20488;-94
2022/10/15 06:41:03;;;;;;;32.10;21.73;;;;;;;;;;5022791;28;20472;-93
2022/10/15 06:54:42;;;;;;;31.90;21.67;;;;;;;;;;5030673;28;20445;-93
2022/10/15 06:57:37;;;;;;;30.37;20.73;;;;;;;;;;5021472;28;20508;-93
2022/10/15 07:13:59;;;;;;;32.93;21.93;;;;;;;;;;5029278;28;20274;-94
2022/10/15 07:17:07;;;;;;;30.53;21.70;;;;;;;;;;5034371;28;20458;-95
2022/10/15 07:20:03;;;;;;;35.60;22.97;;;;;;;;;;5035824;28;20448;-96
2022/10/15 07:26:23;;;;;;;26.93;19.77;;;;;;;;;;5013942;28;20456;-94
2022/10/15 07:29:16;;;;;;;31.27;21.67;;;;;;;;;;5018134;28;20556;-94
2022/10/15 07:32:37;;;;;;;31.40;20.73;;;;;;;;;;5025939;28;20483;-94
2022/10/15 07:39:19;;;;;;;31.67;20.63;;;;;;;;;;5015812;28;20473;-94
2022/10/15 07:42:31;;;;;;;31.97;21.73;;;;;;;;;;5027103;28;20564;-93
2022/10/15 07:45:21;;;;;;;28.58;19.85;;;;;;;;;;5023717;28;20535;-94
2022/10/15 07:48:12;;;;;;;30.07;19.80;;;;;;;;;;5018025;28;20327;-95
2022/10/15 07:51:15;;;;;;;29.70;19.67;;;;;;;;;;5025618;28;20459;-94
2022/10/15 08:00:50;;;;;;;26.03;19.23;;;;;;;;;;5035275;28;20456;-94
2022/10/15 08:21:47;;;;;;;30.30;21.00;;;;;;;;;;5029019;28;20465;-95
2022/10/15 08:24:57;;;;;;;27.00;19.33;;;;;;;;;;5030563;28;20452;-93
2022/10/15 08:27:57;;;;;;;28.53;19.87;;;;;;;;;;5022135;28;20472;-95
2022/10/15 08:30:58;;;;;;;25.67;18.37;;;;;;;;;;5031545;28;20468;-94
2022/10/15 08:37:20;;;;;;;23.40;17.60;;;;;;;;;;5023356;28;20514;-94
2022/10/15 09:00:23;;;;;;;23.27;16.30;;;;;;;;;;5020940;28;20536;-93
2022/10/15 09:03:28;;;;;;;19.47;15.87;;;;;;;;;;5012144;28;20469;-94
2022/10/15 09:09:53;;;;;;;;;;;;;;;;;;;;;
2022/10/15 09:12:58;;;;;;;24.10;17.80;;;;;;;;;;5099863;28;20457;-94
2022/10/15 09:15:51;;;;;;;22.47;17.30;;;;;;;;;;5096511;28;20481;-92
2022/10/15 09:18:52;;;;;;;23.70;17.73;;;;;;;;;;5106694;28;20532;-92
2022/10/15 09:22:00;;;;;;;23.83;17.07;;;;;;;;;;5097595;28;20480;-88
2022/10/15 09:24:49;;;;;;;20.70;15.90;;;;;;;;;;5093387;28;20449;-91
2022/10/15 09:27:39;;;;;;;21.50;15.90;;;;;;;;;;5089609;28;20476;-90
2022/10/15 09:30:33;;;;;;;21.87;15.50;;;;;;;;;;5089996;28;20457;-89
2022/10/15 09:33:32;;;;;;;21.07;15.40;;;;;;;;;;5091028;28;20437;-91
2022/10/15 09:36:41;;;;;;;19.77;15.23;;;;;;;;;;5094643;28;20440;-89
2022/10/15 09:39:38;;;;;;;18.43;14.97;;;;;;;;;;5095593;28;20455;-90
2022/10/15 09:42:38;;;;;;;19.00;14.10;;;;;;;;;;5091846;28;20456;-94
2022/10/15 09:45:30;;;;;;;17.47;14.13;;;;;;;;;;5091049;28;20543;-92
2022/10/15 09:48:21;;;;;;;18.60;13.90;;;;;;;;;;5090696;28;20468;-90
2022/10/15 09:51:15;;;;;;;18.70;15.20;;;;;;;;;;5091214;28;20832;-90
2022/10/15 09:54:11;;;;;;;22.73;14.77;;;;;;;;;;5092563;28;20444;-89
2022/10/15 10:00:10;;;;;;;17.27;14.00;;;;;;;;;;5093897;28;20449;-91
2022/10/15 10:03:27;;;;;;;18.57;14.57;;;;;;;;;;5093246;28;20460;-91
2022/10/15 10:06:30;;;;;;;17.80;15.13;;;;;;;;;;5092085;28;20451;-91
2022/10/15 10:09:29;;;;;;;18.80;13.67;;;;;;;;;;5092743;28;20480;-90
2022/10/15 10:12:21;;;;;;;16.90;14.10;;;;;;;;;;5111099;28;20861;-91
2022/10/15 10:21:41;;;;;;;18.87;13.73;;;;;;;;;;5093989;28;20445;-92
2022/10/15 10:24:45;;;;;;;15.40;12.47;;;;;;;;;;5088778;28;20455;-91
2022/10/15 10:27:34;;;;;;;14.17;12.50;;;;;;;;;;5096699;28;20493;-90
2022/10/15 10:30:24;;;;;;;13.43;11.93;;;;;;;;;;5098849;28;20457;-95
2022/10/15 10:36:49;;;;;;;14.63;10.87;;;;;;;;;;5096281;28;20457;-91
2022/10/15 10:46:43;;;;;;;13.70;11.80;;;;;;;;;;5083533;28;20452;-92
2022/10/15 10:49:35;;;;;;;13.53;10.77;;;;;;;;;;5095963;28;21002;-92
2022/10/15 12:04:47;;;;;;;3.60;3.30;;;;;;;;;;4999445;28;20513;-94
2022/10/15 12:07:45;;;;;;;3.30;3.00;;;;;;;;;;4994044;28;20446;-93
2022/10/15 12:10:43;;;;;;;3.00;2.80;;;;;;;;;;4996089;28;20469;-94
2022/10/15 12:13:38;;;;;;;3.30;3.00;;;;;;;;;;4998362;28;20446;-95
2022/10/15 12:16:43;;;;;;;3.20;2.90;;;;;;;;;;4981598;28;20446;-95
2022/10/15 12:19:43;;;;;;;3.07;2.87;;;;;;;;;;4972552;28;20471;-93
2022/10/15 12:23:04;;;;;;;3.33;2.97;;;;;;;;;;4974048;28;20457;-93
2022/10/15 12:26:24;;;;;;;3.07;2.87;;;;;;;;;;4977153;28;20457;-93
2022/10/15 12:29:20;;;;;;;2.60;2.40;;;;;;;;;;4976623;28;20475;-93
2022/10/15 12:32:23;;;;;;;2.87;2.63;;;;;;;;;;4980636;28;20822;-93
2022/10/15 12:35:39;;;;;;;3.17;2.97;;;;;;;;;;4980708;28;20581;-91
2022/10/15 12:38:33;;;;;;;3.47;3.17;;;;;;;;;;4961705;28;20234;-92
2022/10/15 12:41:26;;;;;;;2.87;2.67;;;;;;;;;;4972306;28;20638;-94
2022/10/15 12:44:25;;;;;;;4.83;3.27;;;;;;;;;;4979627;28;20529;-90
2022/10/15 12:47:51;;;;;;;3.53;3.10;;;;;;;;;;4971301;28;20982;-91
2022/10/15 12:51:48;;;;;;;2.78;2.58;;;;;;;;;;4967808;28;20452;-91
2022/10/15 12:54:48;;;;;;;3.30;2.70;;;;;;;;;;4933661;29;20360;-92
2022/10/15 12:57:55;;;;;;;3.20;3.00;;;;;;;;;;4927039;29;20723;-92
2022/10/15 13:00:44;;;;;;;3.33;3.03;;;;;;;;;;4980540;28;20461;-93
2022/10/15 13:03:36;;;;;;;3.50;3.30;;;;;;;;;;4986489;28;20501;-93
2022/10/15 13:06:32;;;;;;;3.93;3.60;;;;;;;;;;4999086;28;20461;-93
2022/10/15 13:09:32;;;;;;;5.90;4.13;;;;;;;;;;5002694;28;20488;-93
2022/10/15 17:01:04;;;;;;;14.97;13.13;;;;;;;;;;5957406;23;20503;-94
2022/10/15 17:03:53;;;;;;;12.00;10.90;;;;;;;;;;5016177;28;20418;-95
2022/10/15 17:06:42;;;;;;;11.50;10.40;;;;;;;;;;5021507;28;20448;-92
2022/10/15 17:09:31;;;;;;;11.33;10.30;;;;;;;;;;5010901;28;20437;-91
2022/10/15 17:12:20;;;;;;;12.03;9.97;;;;;;;;;;5014932;28;20457;-90
2022/10/15 17:15:12;;;;;;;10.77;9.67;;;;;;;;;;5013462;28;20565;-93
2022/10/15 17:18:06;;;;;;;9.83;8.93;;;;;;;;;;5004105;28;20450;-92
2022/10/15 17:20:55;;;;;;;9.93;9.00;;;;;;;;;;5004901;28;20517;-94
2022/10/15 17:23:44;;;;;;;9.93;8.97;;;;;;;;;;5011214;28;20442;-93
2022/10/15 17:26:37;;;;;;;10.47;9.47;;;;;;;;;;5010100;28;20465;-93
2022/10/15 17:29:26;;;;;;;10.07;9.17;;;;;;;;;;5016412;28;20460;-93
2022/10/15 17:32:22;;;;;;;10.40;9.40;;;;;;;;;;5011397;28;20446;-93
2022/10/15 17:38:17;;;;;;;11.10;9.90;;;;;;;;;;5013313;28;20445;-93
2022/10/15 17:41:20;;;;;;;13.50;9.90;;;;;;;;;;5003339;28;20462;-92
2022/10/15 17:44:10;;;;;;;9.63;8.73;;;;;;;;;;5018425;28;20448;-92
2022/10/15 17:46:59;;;;;;;9.83;8.93;;;;;;;;;;5016434;28;20472;-92
2022/10/15 17:49:51;;;;;;;8.83;8.00;;;;;;;;;;5017785;28;20433;-91
2022/10/15 17:52:44;;;;;;;9.87;8.97;;;;;;;;;;5012988;28;20460;-93
2022/10/15 17:55:33;;;;;;;9.90;9.00;;;;;;;;;;5013725;28;20515;-93
2022/10/15 17:58:22;;;;;;;9.50;8.57;;;;;;;;;;5009803;28;20441;-94
2022/10/15 18:01:13;;;;;;;9.47;8.57;;;;;;;;;;5021388;28;20469;-93
2022/10/15 18:04:12;;;;;;;9.30;8.20;;;;;;;;;;5016403;28;20446;-92
2022/10/15 18:07:01;;;;;;;10.20;8.60;;;;;;;;;;5235752;23;20493;-92
2022/10/15 18:09:51;;;;;;;9.77;8.20;;;;;;;;;;5053710;28;20477;-92
2022/10/15 18:19:05;;;;;;;9.13;8.30;;;;;;;;;;5053461;28;20506;-92
2022/10/15 18:21:56;;;;;;;9.57;8.30;;;;;;;;;;5055846;28;20545;-92
2022/10/15 18:24:45;;;;;;;8.80;8.00;;;;;;;;;;5061778;28;20466;-92
2022/10/15 18:27:36;;;;;;;9.50;8.60;;;;;;;;;;5056870;28;20453;-94
2022/10/15 18:30:26;;;;;;;8.77;7.97;;;;;;;;;;5055286;28;20452;-92
2022/10/15 18:33:15;;;;;;;8.00;7.20;;;;;;;;;;5053425;28;20463;-92
2022/10/15 18:36:12;;;;;;;9.00;8.10;;;;;;;;;;5041699;28;20452;-94
2022/10/15 18:39:01;;;;;;;8.87;8.07;;;;;;;;;;5050085;28;20439;-91
2022/10/15 18:42:04;;;;;;;7.97;7.27;;;;;;;;;;5051146;28;20490;-92
2022/10/15 18:48:12;;;;;;;7.83;7.03;;;;;;;;;;5046829;28;20439;-94
2022/10/15 18:54:05;;;;;;;7.00;6.40;;;;;;;;;;5050793;28;20460;-92
2022/10/15 18:57:08;;;;;;;7.53;6.93;;;;;;;;;;5055032;28;20626;-92
2022/10/15 19:00:18;;;;;;;7.53;6.10;;;;;;;;;;5047815;28;20467;-90
2022/10/15 19:03:07;;;;;;;6.50;6.00;;;;;;;;;;5043129;28;20471;-92
2022/10/15 19:08:59;;;;;;;7.77;7.07;;;;;;;;;;5053584;28;20443;-91
2022/10/15 19:11:50;;;;;;;7.60;6.90;;;;;;;;;;5061051;28;20468;-91
2022/10/15 19:14:39;;;;;;;6.75;6.15;;;;;;;;;;5054632;28;20460;-93
2022/10/15 19:20:45;;;;;;;5.87;5.27;;;;;;;;;;5046035;28;20451;-93
2022/10/15 19:23:34;;;;;;;6.73;6.13;;;;;;;;;;5054152;28;20459;-92
2022/10/15 19:26:24;;;;;;;7.83;6.70;;;;;;;;;;5048073;28;20431;-92
2022/10/15 19:32:22;;;;;;;6.47;5.87;;;;;;;;;;5055147;28;20486;-92
2022/10/15 19:35:14;;;;;;;6.60;6.00;;;;;;;;;;5043721;28;20486;-91
2022/10/15 19:41:05;;;;;;;6.93;6.30;;;;;;;;;;5048071;28;20470;-93
2022/10/15 19:43:55;;;;;;;6.83;6.23;;;;;;;;;;5049167;28;20427;-93
2022/10/15 19:53:18;;;;;;;7.63;6.17;;;;;;;;;;5060149;28;20466;-94
2022/10/15 19:56:15;;;;;;;7.43;6.83;;;;;;;;;;5058998;28;20478;-92
2022/10/15 19:59:05;;;;;;;6.93;6.43;;;;;;;;;;5055703;28;20462;-93
2022/10/15 20:01:54;;;;;;;7.00;6.50;;;;;;;;;;5036938;28;20447;-92
2022/10/15 20:04:44;;;;;;;7.00;6.40;;;;;;;;;;5041621;28;20447;-93
2022/10/15 20:07:37;;;;;;;7.07;6.37;;;;;;;;;;5054145;28;20447;-92
2022/10/15 20:10:26;;;;;;;5.97;5.47;;;;;;;;;;5046494;28;20448;-94
2022/10/15 20:13:16;;;;;;;5.87;5.37;;;;;;;;;;5044193;28;20479;-93
2022/10/15 20:16:09;;;;;;;7.20;6.60;;;;;;;;;;5044427;28;20475;-91
2022/10/15 20:19:18;;;;;;;6.80;6.30;;;;;;;;;;5039285;28;20444;-94
2022/10/15 20:25:10;;;;;;;8.40;6.10;;;;;;;;;;5050843;28;20466;-92
2022/10/15 20:27:59;;;;;;;7.07;6.47;;;;;;;;;;5049222;28;20444;-93
2022/10/15 20:30:54;;;;;;;6.70;6.10;;;;;;;;;;5051646;28;20447;-93
2022/10/15 20:33:43;;;;;;;6.70;6.10;;;;;;;;;;5041494;28;20494;-92
2022/10/15 20:36:32;;;;;;;7.30;6.67;;;;;;;;;;5061335;28;20478;-93
2022/10/15 20:39:22;;;;;;;7.70;7.10;;;;;;;;;;5052963;28;20443;-91
2022/10/15 20:42:11;;;;;;;8.27;7.60;;;;;;;;;;5051724;28;20464;-92
2022/10/15 20:45:00;;;;;;;7.30;6.60;;;;;;;;;;5048378;28;20435;-92
2022/10/15 20:47:51;;;;;;;7.03;6.53;;;;;;;;;;5046720;28;20450;-92
2022/10/15 20:50:42;;;;;;;7.80;7.10;;;;;;;;;;5046209;28;20447;-93
2022/10/15 20:53:35;;;;;;;6.97;6.47;;;;;;;;;;5053302;28;20467;-93
2022/10/15 20:56:27;;;;;;;7.67;7.07;;;;;;;;;;5046234;28;20478;-95
2022/10/15 20:59:17;;;;;;;8.20;7.50;;;;;;;;;;5032251;28;20433;-92
2022/10/15 21:02:08;;;;;;;8.17;7.57;;;;;;;;;;5039578;28;20494;-91
2022/10/15 21:05:16;;;;;;;9.10;8.30;;;;;;;;;;5041014;28;20451;-91
2022/10/15 21:08:07;;;;;;;9.20;8.30;;;;;;;;;;5052312;28;20455;-92
2022/10/15 21:11:09;;;;;;;7.97;7.27;;;;;;;;;;5049279;28;20475;-92
2022/10/15 22:12:02;;;;;;;6.70;6.00;;;;;;;;;;5018697;28;20469;-94
2022/10/15 22:18:11;;;;;;;5.83;5.33;;;;;;;;;;5018131;28;20460;-92
2022/10/15 22:21:16;;;;;;;5.60;5.20;;;;;;;;;;5016163;28;20445;-93
2022/10/15 22:24:08;;;;;;;5.93;5.43;;;;;;;;;;5012872;28;20458;-91
2022/10/15 22:27:08;;;;;;;5.60;5.10;;;;;;;;;;5015117;28;20512;-92
2022/10/15 22:30:05;;;;;;;4.80;4.40;;;;;;;;;;5013605;28;20441;-91
2022/10/15 22:36:11;;;;;;;5.07;4.60;;;;;;;;;;5012710;28;20218;-92
2022/10/15 22:39:15;;;;;;;5.43;4.70;;;;;;;;;;5017758;28;20509;-94
2022/10/15 22:51:33;;;;;;;6.33;5.73;;;;;;;;;;5007138;28;20473;-92
2022/10/15 22:54:23;;;;;;;8.60;6.27;;;;;;;;;;5026772;28;20456;-91
2022/10/15 23:00:37;;;;;;;6.13;5.53;;;;;;;;;;5014854;28;20471;-91
